Time;durP1;ratioP1;P1;durP2;ratioP2;P2;SDS_P1;SDS_P2;PMS_P1;PMS_P2;Temp;Humidity;BMP_temperature;BMP_pressure;BME280_temperature;BME280_humidity;BME280_pressure;Samples;Min_cycle;Max_cycle;Signal;HPM_P1;HPM_P2
2021/06/08 00:01:48;;;;;;;12.32;7.03;;;;;;;19.11;62.54;101741.25;5012526;28;20049;-65
2021/06/08 00:04:16;;;;;;;12.60;6.97;;;;;;;19.27;62.39;101742.22;5014278;28;20057;-67
2021/06/08 00:06:43;;;;;;;10.48;6.47;;;;;;;19.31;62.66;101739.56;5014279;28;20046;-65
2021/06/08 00:13:48;;;;;;;10.57;6.78;;;;;;;19.04;63.60;101733.44;5014352;28;20050;-67
2021/06/08 00:16:17;;;;;;;9.43;6.30;;;;;;;18.94;64.03;101733.88;5013911;28;20045;-67
2021/06/08 00:18:44;;;;;;;9.38;6.57;;;;;;;19.01;63.79;101728.56;5014011;28;20053;-66
2021/06/08 00:21:11;;;;;;;10.68;6.68;;;;;;;18.85;64.14;101729.53;5014031;28;20500;-66
2021/06/08 00:23:39;;;;;;;11.90;6.78;;;;;;;18.82;64.88;101733.03;5013576;28;20050;-67
2021/06/08 00:26:06;;;;;;;11.43;7.15;;;;;;;18.67;65.04;101728.91;5013892;28;20156;-67
2021/06/08 00:28:33;;;;;;;8.45;6.53;;;;;;;18.74;64.99;101731.16;5013926;28;20049;-65
2021/06/08 00:31:01;;;;;;;9.52;7.20;;;;;;;18.67;65.09;101734.47;5014060;28;20362;-65
2021/06/08 00:33:29;;;;;;;17.45;7.32;;;;;;;18.61;65.49;101735.88;5012942;28;20458;-67
2021/06/08 00:35:57;;;;;;;10.68;6.90;;;;;;;18.66;65.44;101729.25;5013487;28;20041;-65
2021/06/08 00:38:24;;;;;;;12.10;6.82;;;;;;;18.34;66.37;101733.59;5014095;28;20058;-64
2021/06/08 00:40:51;;;;;;;11.55;7.57;;;;;;;18.52;66.06;101723.97;5012448;28;20050;-66
2021/06/08 00:43:24;;;;;;;10.50;6.82;;;;;;;18.58;65.71;101722.59;5012475;28;20054;-66
2021/06/08 00:45:52;;;;;;;9.38;6.90;;;;;;;18.74;64.94;101726.38;5013620;28;20490;-69
2021/06/08 00:48:20;;;;;;;10.82;7.50;;;;;;;18.98;63.87;101720.06;5028560;28;20057;-69
2021/06/08 00:50:48;;;;;;;8.88;6.40;;;;;;;19.18;63.05;101721.94;5013239;28;20477;-65
2021/06/08 00:53:31;;;;;;;11.20;7.43;;;;;;;19.17;62.25;101725.91;4991846;28;20046;-67
2021/06/08 00:55:58;;;;;;;11.93;7.97;;;;;;;19.18;62.21;101732.31;4991094;28;20050;-67
2021/06/08 00:58:26;;;;;;;12.13;7.95;;;;;;;18.68;64.09;101733.34;4990649;28;20050;-67
2021/06/08 01:00:53;;;;;;;11.10;7.60;;;;;;;18.42;65.42;101737.53;4991739;28;20553;-68
2021/06/08 01:03:21;;;;;;;11.27;7.97;;;;;;;18.34;65.47;101724.44;4991566;28;20046;-70
2021/06/08 01:05:48;;;;;;;15.52;7.97;;;;;;;18.27;65.89;101738.91;4992247;28;20406;-68
2021/06/08 01:08:15;;;;;;;14.55;7.85;;;;;;;18.07;66.84;101739.72;4975298;28;20051;-68
2021/06/08 01:10:43;;;;;;;14.65;8.43;;;;;;;17.53;68.92;101738.75;4990754;28;20054;-69
2021/06/08 01:13:46;;;;;;;15.15;8.30;;;;;;;17.39;69.00;101726.16;4993566;28;20526;-89
2021/06/08 01:16:17;;;;;;;18.42;8.57;;;;;;;17.50;68.95;101716.31;4983508;28;20069;-83
2021/06/08 01:18:45;;;;;;;11.57;8.40;;;;;;;17.83;67.77;101715.31;4977874;28;20055;-87
2021/06/08 01:21:14;;;;;;;12.07;8.23;;;;;;;17.86;67.73;101720.19;5007368;28;20061;-87
2021/06/08 01:23:44;;;;;;;13.82;7.88;;;;;;;18.12;66.82;101722.81;4993011;28;20058;-86
2021/06/08 01:26:17;;;;;;;10.73;8.30;;;;;;;18.03;66.75;101724.81;4991332;28;20051;-85
2021/06/08 01:28:45;;;;;;;14.85;8.45;;;;;;;17.99;67.26;101724.69;5002203;28;20065;-87
2021/06/08 01:31:16;;;;;;;10.80;7.78;;;;;;;18.17;66.24;101730.97;4975685;28;20457;-88
2021/06/08 01:33:45;;;;;;;11.15;8.27;;;;;;;17.47;68.79;101739.28;4983840;28;20054;-85
2021/06/08 01:36:15;;;;;;;10.85;8.77;;;;;;;17.13;70.20;101740.19;4999076;28;20046;-81
2021/06/08 01:38:45;;;;;;;12.45;8.73;;;;;;;17.16;70.57;101739.53;4983693;28;20065;-83
2021/06/08 01:41:14;;;;;;;12.45;8.30;;;;;;;17.14;70.79;101752.16;4999528;28;20069;-85
2021/06/08 01:43:44;;;;;;;10.85;8.98;;;;;;;17.05;70.83;101751.38;4982867;28;20038;-87
2021/06/08 01:46:15;;;;;;;13.82;9.00;;;;;;;16.88;71.66;101739.13;4984530;28;20053;-87
2021/06/08 01:48:44;;;;;;;12.10;9.25;;;;;;;16.75;71.68;101751.25;4999657;28;20057;-86
2021/06/08 01:51:29;;;;;;;12.27;9.32;;;;;;;16.51;73.22;101748.16;5018082;28;20053;-88
2021/06/08 01:54:11;;;;;;;14.10;9.05;;;;;;;16.67;72.90;101752.09;5034735;28;20046;-85
2021/06/08 01:56:44;;;;;;;14.55;9.25;;;;;;;16.74;72.81;101760.75;5029666;28;20382;-82
2021/06/08 01:59:35;;;;;;;10.85;8.60;;;;;;;16.83;72.76;101755.16;5032688;28;20081;-86
2021/06/08 02:02:21;;;;;;;12.20;9.73;;;;;;;16.56;73.58;101752.75;4989659;28;20065;-85
2021/06/08 02:04:56;;;;;;;11.77;9.88;;;;;;;16.45;74.31;101756.97;5023006;28;20418;-80
2021/06/08 02:07:52;;;;;;;14.73;9.02;;;;;;;16.43;74.47;101753.69;5027067;28;20057;-83
2021/06/08 02:11:00;;;;;;;13.18;8.98;;;;;;;16.42;74.91;101752.88;4967135;28;20557;-87
2021/06/08 02:13:34;;;;;;;11.30;9.00;;;;;;;16.41;74.75;101747.66;4977828;28;20054;-82
2021/06/08 02:16:14;;;;;;;12.25;8.82;;;;;;;16.48;74.28;101762.72;4973718;28;20055;-87
2021/06/08 02:18:44;;;;;;;12.77;9.53;;;;;;;16.42;74.22;101769.56;4972723;28;20053;-85
2021/06/08 02:21:12;;;;;;;;;;;;;;;16.54;73.72;101761.44;4973992;28;20063;-86
2021/06/08 02:27:51;;;;;;;11.55;9.25;;;;;;;16.29;74.93;101776.13;4982448;28;20057;-81
2021/06/08 02:30:22;;;;;;;11.85;9.27;;;;;;;16.61;73.68;101772.06;5000136;28;20053;-84
2021/06/08 02:32:51;;;;;;;11.68;8.90;;;;;;;16.33;73.93;101763.19;5003656;28;20405;-85
2021/06/08 02:35:21;;;;;;;12.55;9.82;;;;;;;16.06;75.17;101774.59;5020072;28;20053;-85
2021/06/08 02:42:32;;;;;;;16.92;9.65;;;;;;;16.07;75.82;101776.25;5007487;28;20053;-82
2021/06/08 02:45:02;;;;;;;13.38;9.45;;;;;;;15.92;76.48;101775.91;4978791;28;20064;-84
2021/06/08 02:47:36;;;;;;;13.48;9.43;;;;;;;16.04;75.53;101774.09;5022542;28;20061;-85
2021/06/08 02:50:07;;;;;;;17.45;10.40;;;;;;;15.79;76.62;101777.66;4995665;28;20060;-81
2021/06/08 02:52:41;;;;;;;13.25;9.90;;;;;;;15.85;76.12;101773.56;5005195;28;20065;-80
2021/06/08 02:59:46;;;;;;;15.30;11.10;;;;;;;15.83;75.14;101786.16;5035168;28;20053;-80
2021/06/08 03:02:24;;;;;;;21.90;10.52;;;;;;;15.86;74.80;101783.56;5041669;28;20054;-84
2021/06/08 03:05:02;;;;;;;13.27;10.40;;;;;;;15.89;75.21;101782.09;5042298;28;20069;-85
2021/06/08 03:07:35;;;;;;;12.32;9.85;;;;;;;15.81;75.40;101789.28;5012932;28;20042;-84
2021/06/08 03:14:33;;;;;;;13.95;10.27;;;;;;;15.66;75.84;101796.06;5030218;28;20046;-82
2021/06/08 03:17:02;;;;;;;15.15;10.30;;;;;;;15.64;75.89;101795.56;5023459;28;20046;-84
2021/06/08 03:19:34;;;;;;;19.63;11.25;;;;;;;15.46;76.34;101796.63;4986624;28;20058;-81
2021/06/08 03:22:13;;;;;;;14.95;10.63;;;;;;;15.71;75.29;101790.38;4985588;28;20046;-79
2021/06/08 03:29:07;;;;;;;16.00;11.40;;;;;;;15.31;76.24;101796.19;5043046;28;20056;-87
2021/06/08 03:31:51;;;;;;;15.82;11.52;;;;;;;15.40;75.66;101794.31;4999498;28;20064;-82
2021/06/08 03:34:20;;;;;;;14.07;11.50;;;;;;;15.33;75.62;101793.94;5004889;28;20057;-87
2021/06/08 03:36:50;;;;;;;15.57;11.32;;;;;;;15.35;75.29;101797.22;4970717;28;20064;-85
2021/06/08 03:43:45;;;;;;;18.45;11.57;;;;;;;15.61;73.85;101798.19;5032181;28;20405;-84
2021/06/08 03:46:16;;;;;;;16.63;11.73;;;;;;;15.69;73.38;101794.63;5001294;28;20058;-81
2021/06/08 03:48:44;;;;;;;15.55;11.43;;;;;;;15.61;73.85;101800.94;5034100;28;20049;-89
2021/06/08 03:51:13;;;;;;;17.23;11.32;;;;;;;15.55;73.46;101805.81;5001236;28;20064;-81
2021/06/08 03:53:40;;;;;;;17.35;11.45;;;;;;;15.57;73.45;101795.22;5000540;28;20057;-83
2021/06/08 04:00:54;;;;;;;19.95;12.18;;;;;;;15.46;73.71;101810.53;5045945;28;20094;-82
2021/06/08 04:03:25;;;;;;;15.13;12.07;;;;;;;15.50;73.69;101803.19;5013692;28;20050;-80
2021/06/08 04:05:55;;;;;;;18.83;11.23;;;;;;;15.62;73.02;101805.38;4987670;28;20052;-81
2021/06/08 04:08:26;;;;;;;20.30;11.98;;;;;;;15.51;73.09;101799.28;4990249;28;20049;-88
2021/06/08 04:10:55;;;;;;;19.27;11.85;;;;;;;15.25;74.12;101809.44;5019146;28;20049;-86
2021/06/08 04:13:22;;;;;;;15.93;11.73;;;;;;;15.66;73.18;101793.31;4984674;28;20057;-82
2021/06/08 04:15:54;;;;;;;18.50;11.77;;;;;;;15.71;72.03;101803.44;4987912;28;20064;-85
2021/06/08 04:18:30;;;;;;;14.20;11.23;;;;;;;15.82;71.95;101796.47;4998395;28;20049;-85
2021/06/08 04:20:59;;;;;;;15.10;11.48;;;;;;;16.03;71.35;101793.88;5030257;28;20054;-82
2021/06/08 04:23:27;;;;;;;16.17;11.80;;;;;;;15.74;71.76;101803.63;4994362;28;20056;-86
2021/06/08 04:25:56;;;;;;;20.20;11.93;;;;;;;15.78;71.78;101809.34;5036456;28;20050;-88
2021/06/08 04:28:26;;;;;;;17.00;12.13;;;;;;;15.91;71.41;101802.88;5005556;28;20046;-85
2021/06/08 04:30:56;;;;;;;14.47;11.57;;;;;;;15.71;72.04;101811.78;4984556;28;20136;-82
2021/06/08 04:33:25;;;;;;;;;;;;;;;15.43;73.06;101811.16;5017672;28;20308;-82
2021/06/08 04:35:54;;;;;;;19.80;12.98;;;;;;;15.44;73.39;101812.00;4983332;28;20391;-87
2021/06/08 04:38:24;;;;;;;17.10;13.13;;;;;;;15.21;74.22;101810.38;4982588;28;20049;-86
2021/06/08 04:40:53;;;;;;;18.30;13.10;;;;;;;15.14;74.93;101801.66;4985436;28;20389;-84
2021/06/08 04:43:22;;;;;;;22.83;12.98;;;;;;;15.31;74.40;101805.34;5003183;28;20054;-82
2021/06/08 04:45:53;;;;;;;18.80;12.75;;;;;;;15.57;73.56;101811.88;5031715;28;20061;-85
2021/06/08 04:48:24;;;;;;;20.73;12.75;;;;;;;15.84;72.55;101805.28;4999918;28;20050;-83
2021/06/08 04:50:53;;;;;;;20.25;12.70;;;;;;;15.89;71.88;101802.38;5037182;28;20057;-83
2021/06/08 04:53:22;;;;;;;19.08;13.27;;;;;;;15.57;72.79;101814.66;4991205;28;20050;-82
2021/06/08 04:55:51;;;;;;;19.35;12.93;;;;;;;15.59;73.40;101817.94;5006316;28;20042;-87
2021/06/08 04:58:19;;;;;;;16.35;12.95;;;;;;;15.49;73.32;101811.84;5022085;28;20042;-82
2021/06/08 05:01:21;;;;;;;20.08;13.35;;;;;;;15.38;74.03;101811.28;4999520;28;20058;-85
2021/06/08 05:03:52;;;;;;;17.60;12.73;;;;;;;15.61;73.59;101820.41;5009304;28;20056;-85
2021/06/08 05:06:30;;;;;;;20.10;13.13;;;;;;;15.75;72.42;101810.81;4995786;28;20054;-83
2021/06/08 05:09:10;;;;;;;19.50;13.15;;;;;;;15.58;72.79;101816.31;5010532;28;20049;-86
2021/06/08 05:11:52;;;;;;;17.17;13.20;;;;;;;15.77;72.00;101825.22;5015220;28;20058;-85
2021/06/08 05:14:27;;;;;;;20.08;14.73;;;;;;;15.28;74.08;101817.09;4999502;28;20056;-84
2021/06/08 05:16:56;;;;;;;20.92;14.07;;;;;;;15.35;74.13;101824.97;4994525;28;20053;-84
2021/06/08 05:19:25;;;;;;;19.80;13.68;;;;;;;15.61;73.33;101826.78;4996481;28;20048;-84
2021/06/08 05:21:53;;;;;;;22.27;14.77;;;;;;;15.58;73.10;101818.28;5048374;28;20049;-86
2021/06/08 05:24:24;;;;;;;22.65;14.70;;;;;;;15.53;73.34;101819.22;5036520;28;20026;-83
2021/06/08 05:26:53;;;;;;;17.17;13.48;;;;;;;15.90;72.49;101817.88;5051773;28;20048;-88
2021/06/08 05:29:24;;;;;;;25.98;13.82;;;;;;;15.89;72.20;101812.66;5019134;28;20030;-87
2021/06/08 05:31:58;;;;;;;20.58;13.63;;;;;;;15.83;72.36;101823.09;5004677;28;20038;-86
2021/06/08 05:34:26;;;;;;;21.60;13.88;;;;;;;16.07;71.11;101819.91;5031183;28;20136;-86
2021/06/08 05:36:54;;;;;;;20.70;14.00;;;;;;;15.76;71.77;101831.91;4988278;28;20600;-84
2021/06/08 05:39:22;;;;;;;21.30;14.55;;;;;;;15.46;73.45;101826.38;5013111;28;20062;-86
2021/06/08 05:41:51;;;;;;;21.70;13.82;;;;;;;15.83;72.37;101825.06;5014471;28;20054;-85
2021/06/08 05:44:20;;;;;;;18.27;14.77;;;;;;;15.64;72.60;101831.69;5014674;28;20054;-85
2021/06/08 05:47:06;;;;;;;21.85;15.00;;;;;;;15.91;71.66;101825.09;5004382;28;20057;-84
2021/06/08 05:49:36;;;;;;;21.55;14.48;;;;;;;15.91;71.68;101835.38;5028090;28;20038;-84
2021/06/08 05:52:06;;;;;;;23.35;14.45;;;;;;;16.06;71.66;101826.59;5030840;28;20077;-84
2021/06/08 05:54:37;;;;;;;20.38;14.02;;;;;;;16.44;70.80;101833.22;5030950;28;20056;-86
2021/06/08 05:57:08;;;;;;;19.88;14.18;;;;;;;16.03;70.91;101828.06;4996292;28;20044;-79
2021/06/08 05:59:37;;;;;;;26.20;15.73;;;;;;;15.92;71.48;101825.91;4995437;28;20054;-87
2021/06/08 06:02:06;;;;;;;18.27;14.10;;;;;;;15.87;72.04;101835.22;5011603;28;20054;-83
2021/06/08 06:04:36;;;;;;;21.63;16.38;;;;;;;15.43;73.82;101835.34;5024112;28;20053;-84
2021/06/08 06:07:04;;;;;;;19.55;14.77;;;;;;;15.60;73.44;101836.22;5019015;28;20049;-84
2021/06/08 06:09:32;;;;;;;28.17;15.35;;;;;;;15.63;72.94;101829.22;5005798;28;20054;-84
2021/06/08 06:12:00;;;;;;;20.40;15.77;;;;;;;15.56;73.38;101840.81;5014324;28;20050;-84
2021/06/08 06:14:30;;;;;;;24.13;15.23;;;;;;;15.85;73.04;101840.25;5027483;28;20064;-86
2021/06/08 06:16:59;;;;;;;18.45;14.73;;;;;;;16.16;71.17;101829.88;5043926;28;20056;-84
2021/06/08 06:19:29;;;;;;;17.90;14.13;;;;;;;16.30;70.60;101829.78;5005997;28;20065;-83
2021/06/08 06:21:59;;;;;;;25.50;15.35;;;;;;;16.01;71.75;101835.91;5004928;28;20073;-84
2021/06/08 06:24:28;;;;;;;20.25;14.43;;;;;;;16.58;70.35;101833.91;4991813;28;20468;-86
2021/06/08 06:26:55;;;;;;;28.48;14.18;;;;;;;16.61;69.69;101833.25;5009699;28;20050;-83
2021/06/08 06:29:24;;;;;;;20.45;14.68;;;;;;;16.75;69.23;101831.94;5008980;28;20046;-83
2021/06/08 06:31:56;;;;;;;24.40;14.43;;;;;;;17.09;67.84;101830.25;5010597;28;20046;-85
2021/06/08 06:34:26;;;;;;;27.95;14.13;;;;;;;17.08;67.65;101832.25;5008728;28;20062;-88
2021/06/08 06:36:58;;;;;;;20.35;14.63;;;;;;;17.15;67.73;101832.56;5004583;28;20073;-81
2021/06/08 06:39:31;;;;;;;23.38;14.90;;;;;;;16.65;69.68;101834.22;5023052;28;20042;-84
2021/06/08 06:42:01;;;;;;;23.50;13.98;;;;;;;17.21;68.85;101839.59;5041086;28;20064;-83
2021/06/08 06:44:32;;;;;;;21.10;13.60;;;;;;;17.34;67.64;101841.38;5032895;28;20048;-82
2021/06/08 06:47:01;;;;;;;22.80;14.27;;;;;;;17.24;68.19;101844.50;5014686;28;20489;-83
2021/06/08 06:49:42;;;;;;;27.40;13.82;;;;;;;17.35;67.47;101837.41;5013540;28;20061;-79
2021/06/08 06:52:12;;;;;;;20.63;15.10;;;;;;;17.34;68.33;101849.72;5012340;28;20049;-81
2021/06/08 06:54:42;;;;;;;23.63;14.57;;;;;;;17.20;67.98;101849.09;5029730;28;20057;-81
2021/06/08 06:57:11;;;;;;;23.15;14.80;;;;;;;17.52;67.54;101839.38;4992396;28;20049;-83
2021/06/08 06:59:39;;;;;;;24.98;13.75;;;;;;;17.28;68.18;101841.84;5007224;28;20061;-85
2021/06/08 07:02:12;;;;;;;24.73;15.10;;;;;;;17.16;68.21;101844.50;4995568;28;20064;-86
2021/06/08 07:04:41;;;;;;;24.48;15.27;;;;;;;17.10;67.84;101851.41;5005542;28;20050;-89
2021/06/08 07:07:19;;;;;;;25.40;14.65;;;;;;;17.11;68.27;101853.03;5020942;28;20394;-88
2021/06/08 07:09:52;;;;;;;23.92;13.63;;;;;;;17.35;67.57;101848.56;5023491;28;20069;-87
2021/06/08 07:12:46;;;;;;;26.10;15.02;;;;;;;17.12;68.52;101849.91;5021607;28;20057;-86
2021/06/08 07:15:24;;;;;;;22.52;14.77;;;;;;;16.95;68.16;101847.16;5005719;28;20056;-86
2021/06/08 07:17:54;;;;;;;27.13;14.82;;;;;;;17.24;67.79;101840.91;5005965;28;20057;-86
2021/06/08 07:20:26;;;;;;;20.77;14.60;;;;;;;17.52;66.89;101839.38;5002556;28;20050;-85
2021/06/08 07:22:57;;;;;;;23.75;14.38;;;;;;;17.67;66.15;101842.44;5019737;28;20053;-84
2021/06/08 07:25:34;;;;;;;22.98;13.63;;;;;;;18.02;65.01;101847.84;5037372;28;20042;-83
2021/06/08 07:28:08;;;;;;;22.63;13.52;;;;;;;18.56;63.59;101832.94;5003190;28;20058;-85
2021/06/08 07:30:38;;;;;;;19.48;14.05;;;;;;;18.28;62.70;101835.41;4986234;28;20142;-86
2021/06/08 07:33:08;;;;;;;21.45;15.13;;;;;;;18.61;62.50;101843.88;5020830;28;20061;-83
2021/06/08 07:35:54;;;;;;;24.35;14.23;;;;;;;18.77;61.95;101839.31;5038681;28;20046;-83
2021/06/08 07:38:45;;;;;;;21.80;14.27;;;;;;;18.61;62.34;101833.53;5036512;28;20042;-82
2021/06/08 07:45:39;;;;;;;22.20;12.88;;;;;;;19.97;58.14;101834.06;5039443;28;20057;-85
2021/06/08 07:48:10;;;;;;;22.65;13.73;;;;;;;19.81;57.76;101833.13;5024343;28;20060;-84
2021/06/08 07:50:40;;;;;;;22.95;14.07;;;;;;;19.26;59.67;101832.78;4995893;28;20045;-85
2021/06/08 07:53:08;;;;;;;19.10;13.48;;;;;;;19.68;59.73;101831.47;5010366;28;20119;-82
2021/06/08 07:55:36;;;;;;;23.42;13.70;;;;;;;20.15;57.71;101829.84;5007226;28;20056;-81
2021/06/08 08:02:46;;;;;;;21.10;12.98;;;;;;;20.40;56.66;101819.47;5039794;28;20046;-84
2021/06/08 08:05:17;;;;;;;24.20;13.52;;;;;;;20.28;56.77;101821.47;4989160;28;20490;-86
2021/06/08 08:07:47;;;;;;;23.77;13.77;;;;;;;21.02;54.40;101819.78;5025083;28;20049;-80
2021/06/08 08:10:21;;;;;;;23.13;13.70;;;;;;;19.98;57.99;101820.88;4995275;28;20058;-83
2021/06/08 08:12:50;;;;;;;18.15;13.02;;;;;;;20.09;57.81;101825.69;5041343;28;20061;-85
2021/06/08 08:15:19;;;;;;;24.03;13.60;;;;;;;20.30;56.44;101817.16;5023646;28;20058;-82
2021/06/08 08:17:49;;;;;;;21.80;13.32;;;;;;;20.48;57.10;101818.53;5018800;28;20050;-87
2021/06/08 08:20:34;;;;;;;23.90;15.13;;;;;;;20.27;56.77;101814.25;5019653;28;20049;-79
2021/06/08 08:23:06;;;;;;;24.63;12.88;;;;;;;20.49;56.81;101811.75;5020054;28;20050;-84
2021/06/08 08:25:39;;;;;;;19.95;12.38;;;;;;;20.49;56.40;101806.16;5020551;28;20052;-87
2021/06/08 08:28:17;;;;;;;24.50;13.77;;;;;;;20.51;57.17;101803.00;5013149;28;20052;-87
2021/06/08 08:30:48;;;;;;;24.42;14.25;;;;;;;20.78;55.65;101802.22;4990574;28;20054;-84
2021/06/08 08:33:17;;;;;;;21.15;13.40;;;;;;;20.57;56.55;101787.59;5018572;28;20061;-83
2021/06/08 08:35:46;;;;;;;20.17;12.48;;;;;;;20.98;55.42;101787.19;5018692;28;20417;-83
2021/06/08 08:38:14;;;;;;;21.48;13.82;;;;;;;20.80;55.96;101794.28;4986647;28;20038;-81
2021/06/08 08:40:43;;;;;;;21.17;12.73;;;;;;;20.65;55.58;101795.84;5025525;28;20058;-78
2021/06/08 08:43:12;;;;;;;20.50;12.90;;;;;;;20.42;56.15;101799.53;5003270;28;20068;-84
2021/06/08 08:45:47;;;;;;;18.17;13.07;;;;;;;20.81;54.93;101795.91;5004413;28;20124;-84
2021/06/08 08:48:17;;;;;;;25.30;13.30;;;;;;;20.53;55.01;101797.88;5024231;28;20073;-82
2021/06/08 08:50:49;;;;;;;16.88;12.23;;;;;;;20.43;55.39;101792.78;5020443;28;20158;-82
2021/06/08 08:53:21;;;;;;;19.95;12.32;;;;;;;20.14;56.45;101796.63;5002213;28;20049;-82
2021/06/08 08:55:51;;;;;;;21.02;11.95;;;;;;;20.39;55.87;101792.66;5004200;28;20050;-79
2021/06/08 08:58:27;;;;;;;16.70;10.57;;;;;;;20.74;54.59;101796.53;5020926;28;20058;-82
2021/06/08 09:00:57;;;;;;;16.38;10.27;;;;;;;21.02;53.67;101802.16;5001483;28;20157;-82
2021/06/08 09:03:25;;;;;;;21.70;11.07;;;;;;;21.17;53.12;101792.97;5010907;28;20068;-83
2021/06/08 09:05:58;;;;;;;17.17;12.02;;;;;;;20.79;54.23;101793.47;5023726;28;20052;-80
2021/06/08 09:08:27;;;;;;;19.30;9.80;;;;;;;20.72;54.92;101798.88;4992337;28;20071;-84
2021/06/08 09:11:08;;;;;;;17.52;10.15;;;;;;;21.17;54.20;101790.97;5021943;28;20057;-81
2021/06/08 09:13:40;;;;;;;17.08;10.15;;;;;;;21.33;52.61;101787.38;5007447;28;20129;-84
2021/06/08 09:16:10;;;;;;;17.90;10.73;;;;;;;21.14;53.12;101774.06;5009851;28;20404;-82
2021/06/08 09:18:39;;;;;;;20.65;9.95;;;;;;;21.17;53.27;101776.97;5007596;28;20061;-81
2021/06/08 09:21:24;;;;;;;17.58;10.88;;;;;;;20.97;53.79;101779.97;4977152;28;20073;-82
2021/06/08 09:23:54;;;;;;;15.90;9.50;;;;;;;21.05;53.98;101773.41;5002076;28;20065;-85
2021/06/08 09:26:26;;;;;;;16.65;10.32;;;;;;;21.22;53.15;101779.50;5002189;28;20045;-82
2021/06/08 09:28:59;;;;;;;20.08;12.00;;;;;;;20.69;54.37;101773.56;5017247;28;20058;-79
2021/06/08 09:31:44;;;;;;;19.83;10.30;;;;;;;20.90;54.39;101776.97;5017010;28;20054;-81
2021/06/08 09:34:14;;;;;;;18.98;11.75;;;;;;;20.81;54.05;101779.13;4989939;28;20054;-83
2021/06/08 09:36:43;;;;;;;17.67;11.00;;;;;;;21.02;53.16;101769.38;5008520;28;20109;-84
2021/06/08 09:39:19;;;;;;;12.60;9.43;;;;;;;21.11;52.55;101772.78;5029109;28;20056;-82
2021/06/08 09:41:58;;;;;;;20.98;10.38;;;;;;;21.02;52.11;101765.75;5029872;28;20060;-82
2021/06/08 09:44:26;;;;;;;17.92;10.00;;;;;;;21.51;51.89;101767.06;5031674;28;20054;-86
2021/06/08 09:46:59;;;;;;;15.77;10.60;;;;;;;21.11;52.32;101766.38;5012802;28;20045;-82
2021/06/08 09:49:36;;;;;;;17.52;10.73;;;;;;;21.30;52.04;101768.47;4995864;28;20053;-84
2021/06/08 09:52:07;;;;;;;;;;;;;;;21.29;51.61;101758.47;5002267;28;20050;-83
2021/06/08 09:54:39;;;;;;;12.25;8.35;;;;;;;21.30;51.17;101758.09;5034393;28;20342;-84
2021/06/08 09:57:32;;;;;;;14.55;8.15;;;;;;;21.68;50.43;101766.69;5035614;28;20470;-80
2021/06/08 10:00:17;;;;;;;11.77;8.25;;;;;;;21.37;48.91;101768.66;4992782;28;20053;-82
2021/06/08 10:03:34;;;;;;;12.13;6.47;;;;;;;21.52;49.28;101756.63;5022716;28;20065;-79
2021/06/08 10:06:20;;;;;;;15.35;6.60;;;;;;;21.88;48.42;101759.19;5024742;28;20424;-83
2021/06/08 10:09:26;;;;;;;9.43;5.63;;;;;;;21.73;47.90;101757.16;5000004;28;20054;-85
2021/06/08 10:12:59;;;;;;;;;;;;;;;21.87;47.94;101755.56;5030121;28;20049;-81
2021/06/08 10:19:41;;;;;;;10.20;5.13;;;;;;;22.42;46.02;101747.97;5031087;28;20486;-84
2021/06/08 10:22:29;;;;;;;9.52;5.10;;;;;;;22.68;46.64;101745.34;4993012;28;20049;-85
2021/06/08 10:25:04;;;;;;;8.07;4.10;;;;;;;23.06;45.10;101736.88;4978100;28;20069;-89
2021/06/08 10:27:37;;;;;;;10.93;6.70;;;;;;;22.55;45.10;101743.88;5007998;28;20065;-87
2021/06/08 10:34:59;;;;;;;12.43;7.20;;;;;;;22.70;45.50;101737.38;5031365;28;20045;-81
2021/06/08 10:37:42;;;;;;;9.90;6.70;;;;;;;22.52;44.81;101739.78;4994920;28;20417;-78
2021/06/08 10:40:13;;;;;;;;;;;;;;;22.46;44.26;101729.19;5007165;28;20501;-80
2021/06/08 10:43:33;;;;;;;9.82;4.97;;;;;;;22.63;43.70;101723.97;5027063;28;19929;-80
2021/06/08 10:48:04;;;;;;;8.27;5.00;;;;;;;23.16;43.14;101727.81;4990459;28;20054;-82
2021/06/08 10:51:07;;;;;;;8.48;4.55;;;;;;;23.43;41.93;101721.09;4999718;28;20054;-83
2021/06/08 10:54:16;;;;;;;8.82;5.30;;;;;;;23.67;42.04;101717.06;4980718;28;20437;-81
2021/06/08 10:56:58;;;;;;;11.70;5.95;;;;;;;23.20;42.53;101723.91;4984743;28;20073;-85
2021/06/08 10:59:49;;;;;;;8.38;4.53;;;;;;;23.21;43.17;101719.88;4975791;28;20058;-84
2021/06/08 11:03:02;;;;;;;9.00;4.60;;;;;;;23.97;41.80;101720.75;4986019;28;20058;-82
2021/06/08 11:05:47;;;;;;;8.55;4.32;;;;;;;23.83;40.51;101718.53;4993553;28;20101;-82
2021/06/08 11:09:00;;;;;;;8.52;4.60;;;;;;;24.49;39.88;101715.06;5002988;28;20458;-84
2021/06/08 11:12:06;;;;;;;8.68;4.53;;;;;;;23.75;40.60;101715.97;4972016;28;20057;-84
2021/06/08 11:16:08;;;;;;;8.18;4.60;;;;;;;22.99;41.39;101717.88;4943279;29;20157;-84
2021/06/08 11:19:50;;;;;;;7.40;4.57;;;;;;;23.26;40.94;101713.94;4904313;29;20064;-81
2021/06/08 11:22:54;;;;;;;7.45;4.20;;;;;;;23.81;40.14;101712.47;4903484;29;20074;-86
2021/06/08 11:25:53;;;;;;;8.05;4.07;;;;;;;24.13;41.44;101708.13;4918837;29;20055;-81
2021/06/08 11:29:01;;;;;;;9.57;3.58;;;;;;;24.05;39.49;101702.78;4949051;29;20051;-87
2021/06/08 11:32:54;;;;;;;9.13;4.60;;;;;;;23.81;39.97;101706.03;4911774;29;20055;-84
2021/06/08 11:35:41;;;;;;;12.13;3.63;;;;;;;23.61;40.74;101696.88;4904472;29;20062;-86
2021/06/08 11:38:15;;;;;;;9.98;3.90;;;;;;;23.35;40.80;101708.91;4954248;28;20050;-85
2021/06/08 11:40:48;;;;;;;12.75;4.80;;;;;;;23.05;41.22;101704.31;4957551;28;20054;-83
2021/06/08 11:43:24;;;;;;;7.90;4.22;;;;;;;23.25;40.37;101703.91;4944454;28;20043;-86
2021/06/08 11:55:18;;;;;;;8.27;3.22;;;;;;;23.89;39.94;101711.38;4934560;29;20054;-84
2021/06/08 12:02:55;;;;;;;7.38;2.78;;;;;;;24.21;38.20;101703.44;5941515;23;20029;-85
2021/06/08 13:34:24;;;;;;;9.38;2.85;;;;;;;24.90;36.28;101640.66;5591281;23;20075;-83
2021/06/08 13:47:32;;;;;;;6.38;3.22;;;;;;;24.55;36.54;101645.09;4778678;29;20058;-88
2021/06/08 13:51:32;;;;;;;10.77;2.95;;;;;;;24.51;36.67;101643.03;4796084;29;20048;-87
2021/06/08 13:54:40;;;;;;;7.80;3.00;;;;;;;23.87;37.81;101651.84;4830115;29;20051;-84
2021/06/08 14:02:20;;;;;;;9.00;3.00;;;;;;;24.72;37.80;101630.41;4774687;30;20067;-82
2021/06/08 14:18:53;;;;;;;7.97;3.00;;;;;;;25.92;34.56;101609.59;4713034;27;20059;-79
2021/06/08 14:21:30;;;;;;;5.53;2.65;;;;;;;26.21;34.87;101617.00;4872134;29;20052;-77
2021/06/08 14:24:14;;;;;;;5.20;2.70;;;;;;;26.51;34.44;101617.50;4900272;29;20049;-79
2021/06/08 14:27:20;;;;;;;6.55;2.70;;;;;;;26.71;32.87;101609.50;4875422;29;20060;-82
2021/06/08 14:29:58;;;;;;;12.18;2.70;;;;;;;26.73;33.90;101619.19;4895453;29;20408;-81
2021/06/08 14:33:05;;;;;;;6.97;2.85;;;;;;;25.89;34.99;101616.81;4902213;29;20059;-82
2021/06/08 14:35:40;;;;;;;3.80;2.42;;;;;;;25.83;35.16;101621.25;4810063;29;20457;-81
2021/06/08 14:38:09;;;;;;;8.02;2.67;;;;;;;25.47;35.93;101622.25;4811383;29;20057;-80
2021/06/08 14:40:37;;;;;;;5.57;3.05;;;;;;;25.37;36.62;101615.31;4819841;29;20058;-79
2021/06/08 14:43:26;;;;;;;8.02;2.95;;;;;;;25.49;35.93;101623.44;4808002;29;20132;-78
2021/06/08 14:46:20;;;;;;;6.30;2.53;;;;;;;25.31;36.55;101616.03;4810779;29;20433;-81
2021/06/08 14:48:50;;;;;;;9.00;2.83;;;;;;;25.64;35.48;101615.06;4826800;29;20054;-83
2021/06/08 14:51:50;;;;;;;6.13;2.70;;;;;;;25.26;36.14;101616.41;4820090;23;20078;-83
2021/06/08 14:54:19;;;;;;;6.05;2.63;;;;;;;24.91;36.62;101621.75;4765066;29;20407;-80
2021/06/08 15:00:11;;;;;;;6.45;2.75;;;;;;;24.82;37.40;101622.06;4859869;23;20065;-79
2021/06/08 15:02:42;;;;;;;5.13;2.53;;;;;;;24.63;37.65;101612.97;4815551;29;20209;-83
2021/06/08 15:05:17;;;;;;;4.97;2.78;;;;;;;24.73;37.81;101613.13;4812948;29;20077;-80
2021/06/08 15:42:05;;;;;;;3.90;2.20;;;;;;;25.88;35.82;101589.00;4899990;29;20055;-88
2021/06/08 15:45:23;;;;;;;5.75;2.47;;;;;;;25.26;36.81;101593.84;4867650;29;20049;-90